Time;durP1;ratioP1;P1;durP2;ratioP2;P2;SDS_P1;SDS_P2;PMS_P1;PMS_P2;Temp;Humidity;BMP_temperature;BMP_pressure;BME280_temperature;BME280_humidity;BME280_pressure;Samples;Min_cycle;Max_cycle;Signal;HPM_P1;HPM_P2
2022/08/08 00:00:52;;;;;;;3.60;2.53;;;14.70;99.90;;;;;;5006326;28;20716;-87
2022/08/08 00:03:39;;;;;;;3.15;2.63;;;14.80;99.90;;;;;;5010902;28;20268;-86
2022/08/08 00:06:22;;;;;;;3.30;2.47;;;14.80;99.90;;;;;;5009156;28;20207;-87
2022/08/08 00:08:52;;;;;;;7.03;2.58;;;14.80;99.90;;;;;;5004817;28;20218;-87
2022/08/08 00:11:38;;;;;;;3.30;2.65;;;14.70;99.90;;;;;;5011020;28;20191;-86
2022/08/08 00:14:19;;;;;;;4.22;2.80;;;14.80;99.90;;;;;;5009363;28;20229;-85
2022/08/08 00:17:05;;;;;;;4.10;2.78;;;14.60;99.90;;;;;;5011014;28;20187;-88
2022/08/08 00:19:42;;;;;;;4.22;2.40;;;14.60;99.90;;;;;;5011240;28;20861;-87
2022/08/08 00:22:16;;;;;;;4.72;2.90;;;14.60;99.90;;;;;;5012296;28;20198;-87
2022/08/08 00:24:53;;;;;;;2.72;2.30;;;14.60;99.90;;;;;;5012212;28;20259;-86
2022/08/08 00:27:19;;;;;;;2.65;2.28;;;14.60;99.90;;;;;;5012326;28;20289;-88
2022/08/08 00:29:51;;;;;;;3.42;2.60;;;14.50;99.90;;;;;;5010972;28;20203;-86
2022/08/08 00:32:33;;;;;;;3.65;2.30;;;14.50;99.90;;;;;;5010384;28;20182;-87
2022/08/08 00:35:28;;;;;;;3.70;2.53;;;14.30;99.90;;;;;;5010171;28;20187;-87
2022/08/08 00:38:28;;;;;;;2.78;2.50;;;14.30;99.90;;;;;;5010630;28;20274;-87
2022/08/08 00:40:57;;;;;;;3.97;2.70;;;14.30;99.90;;;;;;5010938;28;20187;-86
2022/08/08 00:44:00;;;;;;;4.25;2.40;;;14.30;99.90;;;;;;5010998;28;20183;-86
2022/08/08 00:47:04;;;;;;;3.60;2.70;;;14.30;99.90;;;;;;5010815;28;20185;-88
2022/08/08 00:49:51;;;;;;;3.35;2.50;;;14.40;99.90;;;;;;5010469;28;20207;-87
2022/08/08 00:52:55;;;;;;;3.70;2.53;;;14.30;99.90;;;;;;5010381;28;20943;-86
2022/08/08 00:55:32;;;;;;;2.58;2.28;;;14.20;99.90;;;;;;5001191;28;20191;-88
2022/08/08 00:58:43;;;;;;;4.47;2.53;;;14.20;99.90;;;;;;5009657;28;20726;-86
2022/08/08 01:01:18;;;;;;;3.15;2.70;;;14.20;99.90;;;;;;4980184;28;20195;-87
2022/08/08 01:04:14;;;;;;;4.95;2.80;;;14.20;99.90;;;;;;5009989;28;20193;-86
2022/08/08 01:07:17;;;;;;;3.55;2.58;;;14.10;99.90;;;;;;5002270;28;20229;-88
2022/08/08 01:09:52;;;;;;;4.38;2.58;;;14.10;99.90;;;;;;5009933;28;20214;-86
2022/08/08 01:12:24;;;;;;;4.13;2.25;;;14.10;99.90;;;;;;5010234;28;20658;-87
2022/08/08 01:15:11;;;;;;;3.92;2.78;;;14.10;99.90;;;;;;5011001;28;20194;-87
2022/08/08 01:17:55;;;;;;;3.42;2.60;;;14.10;99.90;;;;;;5006338;28;20555;-86
2022/08/08 01:20:56;;;;;;;4.78;2.78;;;14.10;99.90;;;;;;5007361;28;20262;-86
2022/08/08 01:24:02;;;;;;;5.25;2.55;;;13.90;99.90;;;;;;5011464;28;20183;-86
2022/08/08 01:26:43;;;;;;;5.70;2.83;;;13.80;99.90;;;;;;5007210;28;20193;-86
2022/08/08 01:29:27;;;;;;;4.95;2.80;;;13.80;99.90;;;;;;5009159;28;20203;-88
2022/08/08 01:32:18;;;;;;;3.92;2.55;;;13.70;99.90;;;;;;5010952;28;20190;-87
2022/08/08 01:35:26;;;;;;;3.33;2.50;;;13.80;99.90;;;;;;5002817;28;20187;-87
2022/08/08 01:38:23;;;;;;;4.40;2.75;;;13.70;99.90;;;;;;5009787;28;20195;-86
2022/08/08 01:40:58;;;;;;;3.47;2.25;;;13.70;99.90;;;;;;5009712;28;20194;-86
2022/08/08 01:43:33;;;;;;;4.55;3.17;;;13.80;99.90;;;;;;5009477;28;20201;-88
2022/08/08 01:46:12;;;;;;;4.45;2.75;;;13.70;99.90;;;;;;5009723;28;20194;-87
2022/08/08 01:49:12;;;;;;;3.28;2.40;;;13.60;99.90;;;;;;5009434;28;20226;-87
2022/08/08 01:51:56;;;;;;;3.53;2.67;;;13.60;99.90;;;;;;5009801;28;20187;-88
2022/08/08 01:54:50;;;;;;;2.90;2.42;;;13.50;99.90;;;;;;5009379;28;20273;-87
2022/08/08 01:57:31;;;;;;;3.30;2.70;;;13.60;99.90;;;;;;5009343;28;20650;-86
2022/08/08 02:00:15;;;;;;;3.55;2.58;;;13.50;99.90;;;;;;5005364;28;20241;-86
2022/08/08 02:02:56;;;;;;;3.47;2.80;;;13.50;99.90;;;;;;5010629;28;20525;-86
2022/08/08 02:05:44;;;;;;;3.67;2.90;;;13.50;99.90;;;;;;5009180;28;20190;-87
2022/08/08 02:08:26;;;;;;;5.35;2.58;;;13.50;99.90;;;;;;5009042;28;20226;-88
2022/08/08 02:11:21;;;;;;;5.05;2.90;;;13.50;99.90;;;;;;5009290;28;20195;-87
2022/08/08 02:14:02;;;;;;;5.32;3.03;;;13.50;99.90;;;;;;5009424;28;20329;-85
2022/08/08 02:16:31;;;;;;;3.45;2.70;;;13.60;99.90;;;;;;5008916;28;20187;-87
2022/08/08 02:19:02;;;;;;;3.15;2.20;;;13.60;99.90;;;;;;5009136;28;20211;-87
2022/08/08 02:25:00;;;;;;;4.60;3.08;;;13.40;99.90;;;;;;5008520;28;20213;-87
2022/08/08 02:27:52;;;;;;;3.72;2.83;;;13.40;99.90;;;;;;5008759;28;20199;-87
2022/08/08 02:30:43;;;;;;;4.25;2.53;;;13.30;99.90;;;;;;4981097;28;20259;-87
2022/08/08 02:33:28;;;;;;;3.83;2.85;;;13.30;99.90;;;;;;5008071;28;20750;-87
2022/08/08 02:36:11;;;;;;;4.82;2.90;;;13.30;99.90;;;;;;5008896;28;20187;-87
2022/08/08 02:38:46;;;;;;;3.35;2.55;;;13.30;99.90;;;;;;5011612;28;21059;-87
2022/08/08 02:41:38;;;;;;;3.38;2.63;;;13.30;99.90;;;;;;5010191;28;20297;-87
2022/08/08 02:44:41;;;;;;;3.40;2.60;;;13.30;99.90;;;;;;5009361;28;20674;-87
2022/08/08 02:47:35;;;;;;;4.53;2.97;;;13.20;99.90;;;;;;5009084;28;20210;-86
2022/08/08 02:50:43;;;;;;;6.93;2.97;;;13.10;99.90;;;;;;5008481;28;20745;-87
2022/08/08 02:53:55;;;;;;;4.30;3.03;;;13.10;99.90;;;;;;4997229;28;20706;-86
2022/08/08 02:56:39;;;;;;;5.68;2.97;;;13.10;99.90;;;;;;5002850;28;20593;-87
2022/08/08 02:59:20;;;;;;;3.47;2.90;;;13.00;99.90;;;;;;5007884;28;20330;-89
2022/08/08 03:02:33;;;;;;;3.78;3.00;;;12.90;99.90;;;;;;5008540;28;20281;-87
2022/08/08 03:05:45;;;;;;;3.72;2.55;;;12.80;99.90;;;;;;5008593;28;20195;-87
2022/08/08 03:08:39;;;;;;;3.80;3.00;;;12.80;99.90;;;;;;5008589;28;20595;-88
2022/08/08 03:11:20;;;;;;;7.10;2.85;;;12.90;99.90;;;;;;5009007;28;20326;-87
2022/08/08 03:14:02;;;;;;;4.95;2.85;;;12.80;99.90;;;;;;5008654;28;20183;-87
2022/08/08 03:16:47;;;;;;;4.00;3.05;;;12.90;99.90;;;;;;5008559;28;20717;-86
2022/08/08 03:19:20;;;;;;;4.45;2.72;;;12.80;99.90;;;;;;4992669;28;20207;-87
2022/08/08 03:21:45;;;;;;;3.63;2.72;;;12.70;99.90;;;;;;5010186;28;20498;-87
2022/08/08 03:24:14;;;;;;;3.72;2.72;;;12.70;99.90;;;;;;5012021;28;20669;-86
2022/08/08 03:26:47;;;;;;;5.15;3.13;;;12.70;99.90;;;;;;5012063;28;20688;-88
2022/08/08 03:29:19;;;;;;;4.45;3.10;;;12.70;99.90;;;;;;5011788;28;20217;-86
2022/08/08 03:34:34;;;;;;;4.53;2.88;;;12.80;99.90;;;;;;5009459;28;20206;-86
2022/08/08 03:37:00;;;;;;;4.38;3.10;;;12.70;99.90;;;;;;5011556;28;20266;-87
2022/08/08 03:39:26;;;;;;;3.15;2.50;;;12.70;99.90;;;;;;5011798;28;20293;-87
2022/08/08 03:41:52;;;;;;;3.17;2.65;;;12.70;99.90;;;;;;5011768;28;20187;-87
2022/08/08 03:44:18;;;;;;;4.88;3.08;;;12.70;99.90;;;;;;5011795;28;20198;-88
2022/08/08 03:46:46;;;;;;;3.85;3.00;;;12.70;99.90;;;;;;5012014;28;20674;-88
2022/08/08 03:49:22;;;;;;;3.42;3.10;;;12.60;99.90;;;;;;5011972;28;20214;-85
2022/08/08 03:51:56;;;;;;;3.65;3.03;;;12.70;99.90;;;;;;5011799;28;20527;-87
2022/08/08 03:54:24;;;;;;;3.25;2.85;;;12.70;99.90;;;;;;4995172;28;20350;-87
2022/08/08 03:56:50;;;;;;;9.35;3.63;;;12.60;99.90;;;;;;5011421;28;20198;-86
2022/08/08 03:59:17;;;;;;;5.88;3.20;;;12.60;99.90;;;;;;5011428;28;20238;-87
2022/08/08 04:01:43;;;;;;;3.92;3.03;;;12.60;99.90;;;;;;5012827;28;20198;-87
2022/08/08 04:04:09;;;;;;;5.47;3.10;;;12.60;99.90;;;;;;5012245;28;20665;-88
2022/08/08 04:06:36;;;;;;;5.15;3.42;;;12.50;99.90;;;;;;5010948;28;20253;-86
2022/08/08 04:09:06;;;;;;;3.25;2.88;;;12.50;99.90;;;;;;5010713;28;20207;-87
2022/08/08 04:11:34;;;;;;;4.60;3.08;;;12.40;99.90;;;;;;5012953;28;20577;-86
2022/08/08 04:13:59;;;;;;;5.88;2.97;;;12.50;99.90;;;;;;5011449;28;20202;-87
2022/08/08 04:16:25;;;;;;;3.78;2.85;;;12.40;99.90;;;;;;5011834;28;20643;-86
2022/08/08 04:18:51;;;;;;;4.13;3.20;;;12.40;99.90;;;;;;5011472;28;20238;-87
2022/08/08 04:21:17;;;;;;;5.65;3.33;;;12.40;99.90;;;;;;5010717;28;20678;-86
2022/08/08 04:23:43;;;;;;;3.58;2.88;;;12.30;99.90;;;;;;5012321;28;20187;-87
2022/08/08 04:26:09;;;;;;;3.85;3.22;;;12.30;99.90;;;;;;5011008;28;20187;-87
2022/08/08 04:28:35;;;;;;;4.85;3.60;;;12.30;99.90;;;;;;5010876;28;20222;-86
2022/08/08 04:31:01;;;;;;;4.00;3.42;;;12.40;99.90;;;;;;5011212;28;20191;-86
2022/08/08 04:33:27;;;;;;;4.32;3.60;;;12.30;99.90;;;;;;5009776;28;20666;-87
2022/08/08 04:35:53;;;;;;;6.38;3.42;;;12.30;99.90;;;;;;5011964;28;20183;-87
2022/08/08 04:38:19;;;;;;;4.40;3.42;;;12.40;99.90;;;;;;5010756;28;20211;-88
2022/08/08 04:40:45;;;;;;;4.45;3.22;;;12.30;99.90;;;;;;5010551;28;20191;-87
2022/08/08 04:43:11;;;;;;;4.28;3.53;;;12.30;99.90;;;;;;5010674;28;20583;-88
2022/08/08 04:45:37;;;;;;;5.57;3.35;;;12.30;99.90;;;;;;5010453;28;20187;-87
2022/08/08 04:48:03;;;;;;;4.97;3.38;;;12.30;99.90;;;;;;5010507;28;20294;-87
2022/08/08 04:50:29;;;;;;;6.35;3.45;;;12.30;99.90;;;;;;5010131;28;20194;-87
2022/08/08 04:52:55;;;;;;;9.02;3.67;;;12.40;99.90;;;;;;5010436;28;20210;-85
2022/08/08 04:55:21;;;;;;;6.20;4.45;;;12.50;99.90;;;;;;5009982;28;20538;-88
2022/08/08 04:57:47;;;;;;;4.05;3.45;;;12.50;99.90;;;;;;5010162;28;20221;-86
2022/08/08 05:00:13;;;;;;;4.20;3.30;;;12.60;99.90;;;;;;5011749;28;20207;-86
2022/08/08 05:02:39;;;;;;;8.52;3.92;;;12.70;99.90;;;;;;5010371;28;20683;-86
2022/08/08 05:05:05;;;;;;;5.07;3.75;;;12.80;99.90;;;;;;5001419;28;20195;-86
2022/08/08 05:07:31;;;;;;;4.80;3.70;;;12.90;99.90;;;;;;5017394;28;20203;-87
2022/08/08 05:09:57;;;;;;;5.53;3.78;;;12.80;99.90;;;;;;5010176;28;20659;-87
2022/08/08 05:12:23;;;;;;;5.43;4.00;;;12.80;99.90;;;;;;5010273;28;20210;-87
2022/08/08 05:14:49;;;;;;;6.32;3.92;;;12.90;99.90;;;;;;5010256;28;20722;-86
2022/08/08 05:17:14;;;;;;;5.00;3.92;;;13.00;99.90;;;;;;5010134;28;20561;-86
2022/08/08 05:19:40;;;;;;;5.05;4.10;;;13.10;99.90;;;;;;5009649;28;20207;-87
2022/08/08 05:22:08;;;;;;;4.38;3.50;;;13.10;99.90;;;;;;5010126;28;20187;-87
2022/08/08 05:24:35;;;;;;;11.20;4.05;;;13.10;99.90;;;;;;5009521;28;20198;-86
2022/08/08 05:27:01;;;;;;;6.78;4.22;;;13.20;99.90;;;;;;5010190;28;20218;-87
2022/08/08 05:29:27;;;;;;;7.22;4.30;;;13.20;99.90;;;;;;5009983;28;20578;-87
2022/08/08 05:31:55;;;;;;;5.00;4.28;;;13.20;99.90;;;;;;5009755;28;20517;-86
2022/08/08 05:34:29;;;;;;;5.55;4.22;;;13.30;99.90;;;;;;5009823;28;20263;-87
2022/08/08 05:36:55;;;;;;;5.78;4.22;;;13.30;99.90;;;;;;4999511;28;20213;-88
2022/08/08 05:39:22;;;;;;;8.63;4.65;;;13.30;99.90;;;;;;5008845;28;20296;-88
2022/08/08 05:41:52;;;;;;;5.72;4.40;;;13.30;99.90;;;;;;5008901;28;20195;-87
2022/08/08 05:44:28;;;;;;;8.27;4.00;;;13.30;99.90;;;;;;5009198;28;20218;-87
2022/08/08 05:46:55;;;;;;;4.43;3.90;;;13.30;99.90;;;;;;5009509;28;20305;-86
2022/08/08 05:49:21;;;;;;;4.78;3.90;;;13.40;99.90;;;;;;5009713;28;20207;-87
2022/08/08 05:51:48;;;;;;;5.97;4.10;;;13.40;99.90;;;;;;5009509;28;20541;-87
2022/08/08 05:54:14;;;;;;;4.85;3.65;;;13.50;99.90;;;;;;5008092;28;20191;-88
2022/08/08 05:56:42;;;;;;;4.75;3.95;;;13.60;99.90;;;;;;5011118;28;20286;-87
2022/08/08 05:59:19;;;;;;;5.57;4.05;;;13.70;99.90;;;;;;5009043;28;20227;-87
2022/08/08 06:01:51;;;;;;;4.70;3.92;;;13.80;99.90;;;;;;5009844;28;20197;-87
2022/08/08 06:04:28;;;;;;;7.15;4.50;;;13.80;99.90;;;;;;5008724;28;20205;-87
2022/08/08 06:06:58;;;;;;;8.48;4.30;;;13.90;99.90;;;;;;5009676;28;20210;-87
2022/08/08 06:09:31;;;;;;;7.22;4.53;;;14.00;99.90;;;;;;5009378;28;20547;-89
2022/08/08 06:12:01;;;;;;;7.57;4.30;;;14.10;99.90;;;;;;5009637;28;20266;-88
2022/08/08 06:14:29;;;;;;;7.57;4.72;;;14.10;99.90;;;;;;5001089;28;20378;-87
2022/08/08 06:17:05;;;;;;;4.38;3.60;;;14.20;99.90;;;;;;5009394;28;20722;-87
2022/08/08 06:19:32;;;;;;;5.60;3.88;;;14.20;99.90;;;;;;5009598;28;20207;-87
2022/08/08 06:21:58;;;;;;;6.57;4.15;;;14.30;99.90;;;;;;5010236;28;20182;-89
2022/08/08 06:24:24;;;;;;;6.43;4.05;;;14.40;99.90;;;;;;5008814;28;20210;-87
2022/08/08 06:27:16;;;;;;;5.15;3.50;;;14.50;99.90;;;;;;5010530;28;20233;-88
2022/08/08 06:30:01;;;;;;;4.65;4.10;;;14.60;99.90;;;;;;4992295;28;20208;-88
2022/08/08 06:32:30;;;;;;;6.30;4.05;;;14.80;99.90;;;;;;5009883;28;20168;-88
2022/08/08 06:35:01;;;;;;;7.20;4.63;;;14.90;99.90;;;;;;5008000;28;20202;-87
2022/08/08 06:37:35;;;;;;;6.20;4.10;;;15.00;99.90;;;;;;5009013;28;20175;-87
2022/08/08 06:40:04;;;;;;;5.50;3.78;;;15.10;99.90;;;;;;5010280;28;20744;-86
2022/08/08 06:42:35;;;;;;;5.75;4.30;;;15.20;99.90;;;;;;5008936;28;20178;-88
2022/08/08 06:45:03;;;;;;;4.15;3.50;;;15.30;99.90;;;;;;5008941;28;20662;-86
2022/08/08 06:47:30;;;;;;;6.50;3.45;;;15.40;99.90;;;;;;5008924;28;20225;-86
2022/08/08 06:49:56;;;;;;;4.25;3.30;;;15.50;99.90;;;;;;5008962;28;20207;-87
2022/08/08 06:52:22;;;;;;;5.38;3.63;;;15.60;99.90;;;;;;5009057;28;20191;-87
2022/08/08 06:54:48;;;;;;;5.13;3.15;;;15.70;99.90;;;;;;5008714;28;20168;-88
2022/08/08 06:57:15;;;;;;;5.72;3.10;;;15.80;99.90;;;;;;5011632;28;20171;-86
2022/08/08 06:59:42;;;;;;;6.13;3.55;;;15.90;99.90;;;;;;5012400;28;20539;-87
2022/08/08 07:02:20;;;;;;;5.13;3.28;;;16.00;99.90;;;;;;5011474;28;20332;-87
2022/08/08 07:04:52;;;;;;;5.80;3.00;;;16.10;99.90;;;;;;5013228;28;20197;-86
2022/08/08 07:07:45;;;;;;;3.75;3.17;;;16.30;99.90;;;;;;5020500;28;20698;-88
2022/08/08 07:10:11;;;;;;;7.35;3.28;;;16.40;99.90;;;;;;4998653;28;20261;-87
2022/08/08 07:12:39;;;;;;;5.57;3.58;;;16.60;99.90;;;;;;5012116;28;20271;-87
2022/08/08 07:15:11;;;;;;;5.05;3.08;;;16.70;99.90;;;;;;5012241;28;20179;-88
2022/08/08 07:17:46;;;;;;;5.53;3.20;;;16.80;99.90;;;;;;5012974;28;20175;-88
2022/08/08 07:20:18;;;;;;;3.42;3.13;;;17.00;99.90;;;;;;4997621;28;20206;-87
2022/08/08 07:22:59;;;;;;;6.05;3.17;;;17.20;99.90;;;;;;5000213;28;20182;-88
2022/08/08 07:25:25;;;;;;;8.45;3.60;;;17.40;99.90;;;;;;5012489;28;20207;-88
2022/08/08 07:28:06;;;;;;;8.75;3.30;;;17.60;99.90;;;;;;5011525;28;20552;-87
2022/08/08 07:30:32;;;;;;;7.85;3.00;;;17.80;99.90;;;;;;5023315;28;20179;-87
2022/08/08 07:33:00;;;;;;;4.30;2.63;;;18.00;99.90;;;;;;5011769;28;20182;-87
2022/08/08 07:35:27;;;;;;;6.07;3.00;;;18.20;99.50;;;;;;5012130;28;20172;-88
2022/08/08 07:37:56;;;;;;;5.28;2.60;;;18.40;99.20;;;;;;5012325;28;20183;-87
2022/08/08 07:40:28;;;;;;;3.95;2.47;;;18.60;98.10;;;;;;5012114;28;20175;-87
2022/08/08 07:42:54;;;;;;;4.93;2.40;;;18.70;98.00;;;;;;5012081;28;20221;-89
2022/08/08 07:45:21;;;;;;;6.15;2.80;;;18.90;98.30;;;;;;5008574;28;20242;-87
2022/08/08 07:47:47;;;;;;;3.65;2.20;;;19.00;97.00;;;;;;5007948;28;20671;-86
2022/08/08 07:50:13;;;;;;;3.45;2.55;;;19.20;96.20;;;;;;5009233;28;20307;-87
2022/08/08 07:52:45;;;;;;;9.35;2.85;;;19.30;96.60;;;;;;5011027;28;20662;-88
2022/08/08 07:55:17;;;;;;;4.03;2.90;;;19.40;96.50;;;;;;5010936;28;20214;-87
2022/08/08 07:57:49;;;;;;;5.05;2.38;;;19.60;97.00;;;;;;5010883;28;20187;-88
2022/08/08 08:00:16;;;;;;;4.45;2.50;;;19.80;96.70;;;;;;5010500;28;20240;-87
2022/08/08 08:02:46;;;;;;;3.80;2.30;;;20.00;95.00;;;;;;5009287;28;20686;-88
2022/08/08 08:05:27;;;;;;;5.78;2.33;;;20.10;95.20;;;;;;5010381;28;20186;-87
2022/08/08 08:08:03;;;;;;;3.53;2.28;;;20.20;94.30;;;;;;5010622;28;20219;-87
2022/08/08 08:10:32;;;;;;;6.35;2.20;;;20.40;94.70;;;;;;5009697;28;20179;-87
2022/08/08 08:13:28;;;;;;;3.63;2.15;;;20.50;92.80;;;;;;5010188;28;20274;-88
2022/08/08 08:16:03;;;;;;;5.30;1.88;;;20.60;92.50;;;;;;4998462;28;20184;-88
2022/08/08 08:18:44;;;;;;;4.85;2.10;;;20.70;91.80;;;;;;5024080;28;20712;-87
2022/08/08 08:21:12;;;;;;;2.47;1.95;;;20.90;91.40;;;;;;5020750;28;20191;-87
2022/08/08 08:23:37;;;;;;;2.75;1.80;;;21.00;92.10;;;;;;5010102;28;20224;-87
2022/08/08 08:26:04;;;;;;;3.90;2.00;;;21.20;90.70;;;;;;5012220;28;20206;-87
2022/08/08 08:28:30;;;;;;;4.18;2.15;;;21.40;90.00;;;;;;5010245;28;20207;-89
2022/08/08 08:31:03;;;;;;;1.52;1.42;;;21.40;86.70;;;;;;5010665;28;20288;-87
2022/08/08 08:33:31;;;;;;;4.55;1.48;;;21.40;86.00;;;;;;5009355;28;20177;-90
2022/08/08 08:35:57;;;;;;;2.80;1.20;;;21.50;84.20;;;;;;5010164;28;20536;-88
2022/08/08 08:38:23;;;;;;;1.48;1.23;;;21.60;84.00;;;;;;5009298;28;20207;-89
2022/08/08 08:40:49;;;;;;;3.08;1.58;;;21.70;84.80;;;;;;5027901;28;20182;-87
2022/08/08 08:43:19;;;;;;;2.55;1.33;;;21.80;86.90;;;;;;5028541;28;20570;-88
2022/08/08 08:45:48;;;;;;;1.92;1.48;;;21.80;82.40;;;;;;5029627;28;20828;-90
2022/08/08 08:48:17;;;;;;;2.30;1.58;;;21.90;84.80;;;;;;5029794;28;20945;-90
2022/08/08 08:50:45;;;;;;;1.90;1.25;;;22.00;85.20;;;;;;5024809;28;20274;-88
2022/08/08 08:53:12;;;;;;;2.13;1.52;;;22.10;84.20;;;;;;4999496;28;20168;-88
2022/08/08 08:55:42;;;;;;;2.28;1.35;;;22.10;84.60;;;;;;4989832;28;20208;-88
2022/08/08 08:58:40;;;;;;;2.90;1.45;;;22.20;83.50;;;;;;4989127;28;20235;-88
2022/08/08 09:01:12;;;;;;;2.40;1.45;;;22.30;81.80;;;;;;4997073;28;20183;-87
2022/08/08 09:03:39;;;;;;;3.35;1.40;;;22.40;80.80;;;;;;5008795;28;20718;-87
2022/08/08 09:06:10;;;;;;;2.33;1.38;;;22.50;83.00;;;;;;5009406;28;20669;-88
2022/08/08 09:08:43;;;;;;;2.45;1.45;;;22.60;81.40;;;;;;5009697;28;20211;-88
2022/08/08 09:11:11;;;;;;;2.97;1.40;;;22.70;82.30;;;;;;5009220;28;20182;-86
2022/08/08 09:13:38;;;;;;;3.00;1.42;;;22.70;83.50;;;;;;5009225;28;20183;-84
2022/08/08 09:16:04;;;;;;;3.55;1.27;;;22.80;80.10;;;;;;5008517;28;20337;-87
2022/08/08 09:18:30;;;;;;;4.53;1.85;;;22.90;81.00;;;;;;5011618;28;20196;-85
2022/08/08 09:21:01;;;;;;;2.38;1.40;;;22.90;82.10;;;;;;5007998;28;20187;-87
2022/08/08 09:23:28;;;;;;;1.65;1.40;;;23.00;80.60;;;;;;5008961;28;20183;-86
2022/08/08 09:26:25;;;;;;;2.35;1.25;;;23.00;82.30;;;;;;5007732;28;20599;-86
2022/08/08 09:28:51;;;;;;;2.58;1.30;;;23.10;79.80;;;;;;5008137;28;20290;-87
2022/08/08 09:31:52;;;;;;;4.07;1.23;;;23.30;82.80;;;;;;5007477;28;20403;-86
2022/08/08 09:34:19;;;;;;;2.35;1.52;;;23.30;82.00;;;;;;4997560;28;20179;-86
2022/08/08 09:36:47;;;;;;;1.75;1.40;;;23.40;81.20;;;;;;5010440;28;20271;-86
2022/08/08 09:39:20;;;;;;;1.50;1.30;;;23.50;80.50;;;;;;5008716;28;20257;-87
2022/08/08 09:42:00;;;;;;;2.63;1.50;;;23.60;82.90;;;;;;5008372;28;20186;-87
2022/08/08 09:44:45;;;;;;;1.63;1.38;;;23.60;82.10;;;;;;5009045;28;20533;-86
2022/08/08 09:47:13;;;;;;;1.38;1.20;;;23.70;79.50;;;;;;5008218;28;20191;-85
2022/08/08 09:49:42;;;;;;;2.53;1.40;;;23.80;79.20;;;;;;5021735;28;20233;-86
2022/08/08 09:52:08;;;;;;;2.25;1.23;;;23.90;76.50;;;;;;5014945;28;20179;-87
2022/08/08 09:54:43;;;;;;;2.50;1.40;;;24.00;77.20;;;;;;5008394;28;20182;-85
2022/08/08 09:57:11;;;;;;;2.45;1.30;;;24.00;78.70;;;;;;5008643;28;20643;-87
2022/08/08 09:59:41;;;;;;;1.35;1.20;;;24.10;77.90;;;;;;5007362;28;20222;-87
2022/08/08 10:02:18;;;;;;;1.55;1.17;;;24.20;78.50;;;;;;5007740;28;20187;-86
2022/08/08 10:18:26;;;;;;;3.63;1.20;;;24.20;80.40;;;;;;5009055;28;20218;-85
2022/08/08 10:20:57;;;;;;;2.03;1.30;;;24.20;78.90;;;;;;5008760;28;20213;-85
2022/08/08 10:23:42;;;;;;;1.75;1.30;;;24.40;76.60;;;;;;5008303;28;20655;-86
2022/08/08 10:26:16;;;;;;;5.05;1.40;;;24.60;78.20;;;;;;5006127;28;20213;-85
2022/08/08 10:29:11;;;;;;;3.03;1.42;;;24.70;78.90;;;;;;5009758;28;20211;-86
2022/08/08 10:34:25;;;;;;;1.98;1.35;;;24.80;77.10;;;;;;5014316;28;20194;-87
2022/08/08 10:36:52;;;;;;;1.75;1.20;;;24.90;77.80;;;;;;5012852;28;20182;-85
2022/08/08 10:39:26;;;;;;;1.50;1.13;;;25.00;76.40;;;;;;5012812;28;20219;-86
2022/08/08 10:41:58;;;;;;;1.52;1.20;;;25.10;74.40;;;;;;5014120;28;20167;-85
2022/08/08 10:44:36;;;;;;;2.10;1.20;;;25.10;74.70;;;;;;5012610;28;20266;-86
2022/08/08 10:47:13;;;;;;;3.03;1.58;;;25.10;76.40;;;;;;5007428;28;20254;-85
2022/08/08 10:49:49;;;;;;;2.95;1.00;;;25.20;74.20;;;;;;4993768;28;20195;-86
2022/08/08 10:52:37;;;;;;;2.75;1.33;;;25.00;74.00;;;;;;5012129;28;20202;-85
2022/08/08 10:55:14;;;;;;;1.45;1.05;;;25.00;74.20;;;;;;5013492;28;21039;-85
2022/08/08 10:57:48;;;;;;;2.80;1.27;;;25.10;75.10;;;;;;5013916;28;20183;-87
2022/08/08 11:00:23;;;;;;;3.90;1.40;;;25.20;77.10;;;;;;5010575;28;20270;-86
2022/08/08 11:02:50;;;;;;;1.58;1.20;;;25.30;75.30;;;;;;5011774;28;20175;-86
2022/08/08 11:05:17;;;;;;;1.45;1.25;;;25.30;72.90;;;;;;5011297;28;20266;-84
2022/08/08 11:07:49;;;;;;;2.17;1.40;;;25.40;74.10;;;;;;4998493;28;20218;-85
2022/08/08 11:10:18;;;;;;;3.20;1.40;;;25.50;75.30;;;;;;5008760;28;20184;-86
2022/08/08 11:12:53;;;;;;;2.95;1.40;;;25.50;75.20;;;;;;4994354;28;20160;-85
2022/08/08 11:15:24;;;;;;;2.30;1.65;;;25.50;74.10;;;;;;5007273;28;20192;-86
2022/08/08 11:17:51;;;;;;;2.08;1.38;;;25.50;74.30;;;;;;5012224;28;20202;-85
2022/08/08 11:20:21;;;;;;;1.92;1.20;;;25.40;73.40;;;;;;5011915;28;20159;-86
2022/08/08 11:22:51;;;;;;;2.33;1.40;;;25.50;72.40;;;;;;5008586;28;20270;-84
2022/08/08 11:25:22;;;;;;;1.73;1.17;;;25.50;72.20;;;;;;5011766;28;20175;-85
2022/08/08 11:27:52;;;;;;;1.55;1.20;;;25.50;72.60;;;;;;5011373;28;20252;-86
2022/08/08 11:30:18;;;;;;;1.67;1.27;;;25.50;71.10;;;;;;5011523;28;20206;-86
2022/08/08 11:32:44;;;;;;;3.40;1.33;;;25.40;71.50;;;;;;5012911;28;20600;-85
2022/08/08 11:35:14;;;;;;;3.28;1.60;;;25.50;72.70;;;;;;5013039;28;20246;-85
2022/08/08 11:37:41;;;;;;;2.80;1.70;;;25.60;72.90;;;;;;5004921;28;20180;-86
2022/08/08 11:40:15;;;;;;;2.50;1.30;;;25.60;72.00;;;;;;5009042;28;20288;-85
2022/08/08 11:42:42;;;;;;;2.05;1.40;;;25.70;72.20;;;;;;5009194;28;20515;-86
2022/08/08 11:45:10;;;;;;;2.30;1.40;;;25.70;72.10;;;;;;5010659;28;20554;-84
2022/08/08 11:47:37;;;;;;;2.00;1.20;;;25.80;71.40;;;;;;5008418;28;20313;-85
2022/08/08 11:50:09;;;;;;;2.35;1.55;;;26.00;71.00;;;;;;5004815;28;20207;-85
2022/08/08 11:52:36;;;;;;;1.70;1.40;;;26.00;71.70;;;;;;5010586;28;20290;-86
2022/08/08 11:55:15;;;;;;;2.28;1.02;;;26.00;71.40;;;;;;5011039;28;20171;-86
2022/08/08 11:57:40;;;;;;;1.35;1.25;;;26.20;72.30;;;;;;5009868;28;20187;-86
2022/08/08 12:00:13;;;;;;;1.65;1.40;;;26.20;70.40;;;;;;5006484;28;20254;-85
2022/08/08 12:02:54;;;;;;;2.80;1.77;;;26.20;71.90;;;;;;5003492;28;20190;-85
2022/08/08 12:05:37;;;;;;;4.13;1.33;;;26.30;71.40;;;;;;5009828;28;20187;-85
2022/08/08 12:08:03;;;;;;;1.98;1.55;;;26.20;71.00;;;;;;5005977;28;20444;-85
2022/08/08 12:10:30;;;;;;;1.15;1.00;;;26.30;70.80;;;;;;5002314;28;20241;-85
2022/08/08 12:13:08;;;;;;;2.55;1.30;;;26.30;73.10;;;;;;5010127;28;20179;-86
2022/08/08 12:15:36;;;;;;;2.63;1.48;;;26.40;72.50;;;;;;5009330;28;20261;-85
2022/08/08 12:18:42;;;;;;;2.38;1.30;;;26.50;69.50;;;;;;5008928;28;20611;-84
2022/08/08 12:21:24;;;;;;;1.35;1.25;;;26.60;72.10;;;;;;4998032;28;20725;-85
2022/08/08 12:24:08;;;;;;;2.10;1.20;;;26.60;69.60;;;;;;5008754;28;20191;-86
2022/08/08 12:26:43;;;;;;;2.22;1.23;;;26.60;70.70;;;;;;5010695;28;20181;-85
2022/08/08 12:29:36;;;;;;;4.47;1.40;;;26.40;66.80;;;;;;5009471;28;20206;-86
2022/08/08 12:32:07;;;;;;;1.48;1.20;;;26.40;72.10;;;;;;5010859;28;20558;-86
2022/08/08 12:34:42;;;;;;;1.88;1.40;;;26.60;71.70;;;;;;5009017;28;20187;-87
2022/08/08 12:37:11;;;;;;;1.80;1.10;;;26.70;69.30;;;;;;5009618;28;20228;-85
2022/08/08 12:39:38;;;;;;;1.52;1.20;;;26.70;68.30;;;;;;5009535;28;20572;-85
2022/08/08 12:42:04;;;;;;;2.75;1.50;;;26.80;70.90;;;;;;5009109;28;20178;-86
2022/08/08 12:44:31;;;;;;;2.38;1.40;;;26.90;70.60;;;;;;5009962;28;20660;-85
2022/08/08 12:46:59;;;;;;;3.08;1.50;;;26.90;68.90;;;;;;5009407;28;20180;-86
2022/08/08 12:49:29;;;;;;;1.55;1.23;;;26.80;69.10;;;;;;5009243;28;20210;-86
2022/08/08 12:51:57;;;;;;;2.17;1.20;;;26.40;69.70;;;;;;5010577;28;20697;-85
2022/08/08 12:54:31;;;;;;;4.05;1.38;;;26.10;69.90;;;;;;5008383;28;20707;-85
2022/08/08 12:56:58;;;;;;;3.65;1.40;;;26.30;69.20;;;;;;5009106;28;20214;-85
2022/08/08 12:59:26;;;;;;;1.40;1.30;;;26.40;68.40;;;;;;5009206;28;20582;-86
2022/08/08 13:01:59;;;;;;;4.13;1.33;;;26.60;68.80;;;;;;5010011;28;20187;-85
2022/08/08 13:04:33;;;;;;;2.40;1.48;;;26.80;71.20;;;;;;5007879;28;20278;-86
2022/08/08 13:07:03;;;;;;;2.60;1.52;;;27.10;69.10;;;;;;5009059;28;20234;-84
2022/08/08 13:09:41;;;;;;;1.48;1.30;;;27.00;68.60;;;;;;5007523;28;20721;-85
2022/08/08 13:12:31;;;;;;;1.90;1.35;;;27.30;72.60;;;;;;5009669;28;20179;-87
2022/08/08 13:15:01;;;;;;;2.65;1.35;;;27.70;68.30;;;;;;4990335;28;20183;-86
2022/08/08 13:17:30;;;;;;;2.58;1.52;;;27.80;69.70;;;;;;5003510;28;20738;-87
2022/08/08 13:19:56;;;;;;;1.70;1.40;;;27.50;67.80;;;;;;5008105;28;20265;-87
2022/08/08 13:22:23;;;;;;;2.00;1.30;;;27.00;66.80;;;;;;5008425;28;20190;-84
2022/08/08 13:24:50;;;;;;;2.67;1.60;;;26.80;69.10;;;;;;5008886;28;20667;-85
2022/08/08 13:27:20;;;;;;;2.05;1.20;;;26.70;70.60;;;;;;5008973;28;20202;-85
2022/08/08 13:29:52;;;;;;;2.03;1.40;;;26.80;70.00;;;;;;5009218;28;20595;-84
2022/08/08 13:32:20;;;;;;;2.60;1.58;;;27.00;68.70;;;;;;5008281;28;20639;-85
2022/08/08 13:34:49;;;;;;;3.47;1.50;;;27.10;68.10;;;;;;5008531;28;20521;-85
2022/08/08 13:37:16;;;;;;;2.10;1.50;;;27.20;68.30;;;;;;5009363;28;20183;-84
2022/08/08 13:39:47;;;;;;;2.88;1.67;;;27.10;67.60;;;;;;5009138;28;20210;-85
2022/08/08 13:42:13;;;;;;;2.10;1.50;;;27.00;70.00;;;;;;5010064;28;20233;-86
2022/08/08 13:44:38;;;;;;;3.10;1.52;;;27.00;69.60;;;;;;5010557;28;20191;-84
2022/08/08 13:47:04;;;;;;;2.95;1.33;;;26.90;70.40;;;;;;5008364;28;20194;-85